CheckWX is a tool to help pilots better visualize weather data.  It is not intended as a substitute for an official pre-flight weather briefing.

04:42:33 UTC

KOMA TAF
Eppley Airfield Airport
Omaha, Nebraska, USA
KOMA 222329Z 2300/2324 10010KT P6SM FEW045 FEW140 SCT250 FM231700 13007KT P6SM SCT050

Aug-23@
00:00 UTC

Aug-23 @ 00:00 UTC

Aug-23@
17:00 UTC

Aug-23 @ 17:00 UTC

KOMA 222329Z 2300/2324 10010KT P6SM FEW045 FEW140 SCT250
Wind
  • 100° at 10 KTS
Cloud Levels
  • Few at 4,500' AGL
  • Few at 14,000' AGL
  • Scattered at 25,000' AGL

Aug-23@
17:00 UTC

Aug-23 @ 17:00 UTC

Aug-24@
00:00 UTC

Aug-24 @ 00:00 UTC

FM231700 13007KT P6SM SCT050

From

From Standard forecast or significant change

Wind
  • 130° at 7 KTS
Cloud Levels
  • Scattered at 5,000' AGL